• Join FlightAware (Why Join?)
  • Login
  • US Flag 
12:28PM EDT


 

Airport Tracker/Info


-or-


 

Live Flight TrackerFlight Track Log ✈ N720EC ✈ 28-Aug-2013 ✈ KBXM - KBHB

Flight Track Log - Related Links

Times and Time Zones

All times are in EDT time to prevent confusion due to time zone crossing. See the N720EC flight status page for this flight to view local times or setup timezone preferences in your user account.

Time Position Orientation Groundspeed Altitude Reporting Facility
EDT Latitude Longitude Course Direction KTS MPH feet Rate Location/Type
08:19AM 43.9740 -69.6627 64° Northeast  Level FlightAware Approximate
08:20AM 43.9899 -69.6179 64° Northeast  Level FlightAware Approximate
08:21AM 44.0057 -69.5731 64° Northeast  Level FlightAware Approximate
08:22AM 44.0216 -69.5283 64° Northeast  Level FlightAware Approximate
08:23AM 44.0374 -69.4834 64° Northeast  Level FlightAware Approximate
08:24AM 44.0533 -69.4385 64° Northeast  Level FlightAware Approximate
08:25AM 44.0691 -69.3936 64° Northeast  Level FlightAware Approximate
08:26AM 44.0849 -69.3487 64° Northeast  Level FlightAware Approximate
08:27AM 44.1006 -69.3037 64° Northeast  Level FlightAware Approximate
08:28AM 44.1164 -69.2587 64° Northeast  Level FlightAware Approximate
08:29AM 44.1321 -69.2137 64° Northeast  Level FlightAware Approximate
08:30AM 44.1478 -69.1687 64° Northeast  Level FlightAware Approximate
08:31AM 44.1635 -69.1236 64° Northeast  Level FlightAware Approximate
08:32AM 44.1792 -69.0785 64° Northeast  Level FlightAware Approximate
08:33AM 44.1958 -69.0341 62° Northeast  Level FlightAware Approximate
08:34AM 44.2127 -68.9899 62° Northeast  Level FlightAware Approximate
08:35AM 44.2296 -68.9456 62° Northeast  Level FlightAware Approximate
08:36AM 44.2465 -68.9013 62° Northeast  Level FlightAware Approximate
08:37AM 44.2634 -68.8570 62° Northeast  Level FlightAware Approximate
08:38AM 44.2802 -68.8127 62° Northeast  Level FlightAware Approximate
08:39AM 44.2971 -68.7683 62° Northeast  Level FlightAware Approximate
08:40AM 44.3139 -68.7240 62° Northeast  Level FlightAware Approximate
08:41AM 44.3287 -68.6782 66° East  Level FlightAware Approximate
08:42AM 44.3432 -68.6322 66° East  Level FlightAware Approximate
08:43AM 44.3576 -68.5862 66° East  Level FlightAware Approximate
08:44AM 44.3719 -68.5401 66° East  Level FlightAware Approximate